createdAt,value
2022-12-06T00:01:11.213Z,96032.97
2022-12-06T00:03:40.489Z,96032.09
2022-12-06T00:06:11.573Z,96031.25
2022-12-06T00:08:40.456Z,96030.66
2022-12-06T00:11:10.808Z,96035.44
2022-12-06T00:13:39.420Z,96028.72
2022-12-06T00:16:09.599Z,96029.22
2022-12-06T00:18:39.441Z,96037.53
2022-12-06T00:21:10.897Z,96032.38
2022-12-06T00:23:39.943Z,96028.31
2022-12-06T00:26:09.202Z,96027.28
2022-12-06T00:28:38.575Z,96012.63
2022-12-06T00:31:07.954Z,96023.25
2022-12-06T00:33:36.920Z,96029.25
2022-12-06T00:36:06.848Z,95989.22
2022-12-06T00:38:36.641Z,96028.47
2022-12-06T00:41:06.977Z,95976.06
2022-12-06T00:43:36.574Z,96020.69
2022-12-06T00:46:06.488Z,96024.13
2022-12-06T00:48:34.975Z,96022.72
2022-12-06T00:51:03.359Z,96013.88
2022-12-06T00:53:31.592Z,96018.38
2022-12-06T00:56:01.129Z,95983.16
2022-12-06T00:58:29.385Z,96021.03
2022-12-06T01:00:57.566Z,96018.56
2022-12-06T01:03:27.746Z,96013.59
2022-12-06T01:05:59.034Z,96007.44
2022-12-06T01:08:27.264Z,96009.06
2022-12-06T01:10:56.075Z,96005.78
2022-12-06T01:13:25.624Z,96010.03
2022-12-06T01:15:54.343Z,95992.69
2022-12-06T01:18:22.496Z,96008.38
2022-12-06T01:20:52.879Z,96009.38
2022-12-06T01:23:21.148Z,96007.38
2022-12-06T01:25:52.533Z,96004.16
2022-12-06T01:28:20.742Z,95990.63
2022-12-06T01:30:50.406Z,95987.31
2022-12-06T01:33:18.678Z,95982.09
2022-12-06T01:35:46.944Z,95992.91
2022-12-06T01:38:17.289Z,95998.97
2022-12-06T01:40:47.878Z,95985.72
2022-12-06T01:43:33.397Z,95995.50
2022-12-06T01:46:06.194Z,95998.63
2022-12-06T01:48:34.927Z,95996.25
2022-12-06T01:51:03.888Z,95993.22
2022-12-06T01:53:32.638Z,95989.75
2022-12-06T01:56:01.024Z,95988.00
2022-12-06T01:58:31.699Z,95982.78
2022-12-06T02:00:59.895Z,95979.06
2022-12-06T02:03:31.598Z,95979.06
2022-12-06T02:06:00.960Z,95977.63
2022-12-06T02:08:29.562Z,95981.56
2022-12-06T02:10:57.756Z,95974.19
2022-12-06T02:13:26.576Z,95971.06
2022-12-06T02:16:01.586Z,95982.88
2022-12-06T02:18:36.113Z,95947.88
2022-12-06T02:21:14.561Z,95968.91
2022-12-06T02:23:56.095Z,95986.72
2022-12-06T02:26:34.479Z,95973.34
2022-12-06T02:29:28.557Z,95973.88
2022-12-06T02:31:59.957Z,95976.88
2022-12-06T02:34:33.042Z,95985.81
2022-12-06T02:37:05.224Z,95939.75
2022-12-06T02:39:36.799Z,95980.81
2022-12-06T02:42:06.623Z,95985.81
2022-12-06T02:44:39.364Z,95973.16
2022-12-06T02:47:11.168Z,95976.31
2022-12-06T02:49:44.894Z,95969.63
2022-12-06T02:52:13.402Z,95963.75
2022-12-06T02:54:42.199Z,95977.41
2022-12-06T02:57:10.595Z,95965.38
2022-12-06T02:59:38.840Z,95972.94
2022-12-06T03:02:12.078Z,95956.09
2022-12-06T03:04:49.790Z,95955.16
2022-12-06T03:07:32.319Z,95955.22
2022-12-06T03:10:24.327Z,95950.16
2022-12-06T03:12:57.738Z,95946.66
2022-12-06T03:15:34.969Z,95947.50
2022-12-06T03:18:10.076Z,95934.41
2022-12-06T03:20:43.818Z,95941.84
2022-12-06T03:23:15.901Z,95939.09
2022-12-06T03:25:45.542Z,95947.56
2022-12-06T03:28:15.610Z,95948.59
2022-12-06T03:30:47.822Z,95941.91
2022-12-06T03:33:18.733Z,95938.63
2022-12-06T03:35:48.335Z,95939.47
2022-12-06T03:38:19.959Z,95945.22
2022-12-06T03:40:49.797Z,95945.13
2022-12-06T03:43:18.036Z,95950.09
2022-12-06T03:45:50.673Z,95940.00
2022-12-06T03:48:22.438Z,95950.22
2022-12-06T03:50:58.376Z,95967.63
2022-12-06T03:53:27.267Z,95967.47
2022-12-06T03:55:55.435Z,95957.53
2022-12-06T03:58:23.699Z,95961.66
2022-12-06T04:00:51.897Z,95955.69
2022-12-06T04:03:21.974Z,95951.72
2022-12-06T04:05:50.334Z,95948.16
2022-12-06T04:08:19.367Z,95951.44
2022-12-06T04:10:47.580Z,95950.84
2022-12-06T04:13:19.622Z,95934.69
2022-12-06T04:15:48.314Z,95941.84
2022-12-06T04:18:16.048Z,95948.16
2022-12-06T04:21:04.941Z,95948.09
2022-12-06T04:23:35.159Z,95925.31
2022-12-06T04:26:04.322Z,95947.50
2022-12-06T04:28:50.300Z,95946.81
2022-12-06T04:31:35.754Z,95951.88
2022-12-06T04:34:21.373Z,95950.09
2022-12-06T04:37:08.643Z,95951.72
2022-12-06T04:39:36.806Z,95957.53
2022-12-06T04:42:23.348Z,95920.91
2022-12-06T04:44:52.874Z,95973.69
2022-12-06T04:47:21.240Z,95965.38
2022-12-06T04:49:49.785Z,95947.47
2022-12-06T04:52:19.604Z,95973.69
2022-12-06T04:54:48.327Z,95979.28
2022-12-06T04:57:18.077Z,95974.38
2022-12-06T04:59:47.357Z,95978.50
2022-12-06T05:02:16.544Z,95980.19
2022-12-06T05:04:45.372Z,95974.22
2022-12-06T05:07:13.742Z,95968.53
2022-12-06T05:09:43.528Z,95975.06
2022-12-06T05:12:11.756Z,95983.53
2022-12-06T05:14:39.973Z,95977.59
2022-12-06T05:17:08.244Z,95970.22
2022-12-06T05:19:36.404Z,95975.06
2022-12-06T05:22:04.844Z,95964.94
2022-12-06T05:24:33.173Z,95980.72
2022-12-06T05:27:03.272Z,95967.31
2022-12-06T05:29:31.488Z,95988.16
2022-12-06T05:31:59.639Z,95968.31
2022-12-06T05:34:27.993Z,95970.91
2022-12-06T05:36:56.339Z,95976.72
2022-12-06T05:39:24.714Z,95964.94
2022-12-06T05:41:53.004Z,95971.59
2022-12-06T05:44:22.438Z,95958.34
2022-12-06T05:46:50.476Z,95969.13
2022-12-06T05:49:18.703Z,95972.75
2022-12-06T05:51:46.911Z,95965.94
2022-12-06T05:54:15.139Z,95971.09
2022-12-06T05:56:43.271Z,95973.94
2022-12-06T05:59:11.406Z,95976.44
2022-12-06T06:01:40.909Z,95969.69
2022-12-06T06:04:09.713Z,95936.81
2022-12-06T06:06:41.618Z,95972.00
2022-12-06T06:09:10.993Z,95970.31
2022-12-06T06:11:39.959Z,95964.56
2022-12-06T06:14:08.144Z,95959.44
2022-12-06T06:16:36.307Z,95944.63
2022-12-06T06:19:06.339Z,95950.66
2022-12-06T06:21:34.575Z,95953.94
2022-12-06T06:24:04.163Z,95958.09
2022-12-06T06:26:32.485Z,95957.25
2022-12-06T06:29:00.599Z,95957.34
2022-12-06T06:31:28.863Z,95960.69
2022-12-06T06:33:56.998Z,95954.97
2022-12-06T06:36:26.737Z,95957.34
2022-12-06T06:38:55.393Z,95961.44
2022-12-06T06:41:24.196Z,95959.53
2022-12-06T06:43:52.360Z,95963.66
2022-12-06T06:46:20.542Z,95969.41
2022-12-06T06:48:48.955Z,95967.69
2022-12-06T06:51:17.392Z,95960.13
2022-12-06T06:53:46.941Z,95963.59
2022-12-06T06:56:15.250Z,95936.81
2022-12-06T06:58:43.465Z,95969.31
2022-12-06T07:01:18.664Z,95970.84
2022-12-06T07:03:47.508Z,95975.28
2022-12-06T07:06:16.252Z,95959.53
2022-12-06T07:08:46.521Z,95965.31
2022-12-06T07:11:16.753Z,95980.94
2022-12-06T07:13:49.675Z,95964.44
2022-12-06T07:16:20.860Z,95957.66
2022-12-06T07:18:49.174Z,95975.97
2022-12-06T07:21:18.122Z,95974.38
2022-12-06T07:23:46.782Z,95968.53
2022-12-06T07:26:18.302Z,95970.06
2022-12-06T07:28:47.336Z,95966.59
2022-12-06T07:31:17.730Z,95962.66
2022-12-06T07:33:46.433Z,95952.41
2022-12-06T07:36:15.719Z,95964.53
2022-12-06T07:38:44.334Z,95972.97
2022-12-06T07:41:31.734Z,95969.59
2022-12-06T07:44:19.451Z,95966.97
2022-12-06T07:46:48.084Z,95963.50
2022-12-06T07:49:17.008Z,95973.31
2022-12-06T07:51:45.513Z,95971.47
2022-12-06T07:54:14.293Z,95969.69
2022-12-06T07:56:42.973Z,95968.94
2022-12-06T07:59:13.227Z,95972.06
2022-12-06T08:01:41.615Z,95968.09
2022-12-06T08:04:11.808Z,95977.34
2022-12-06T08:06:41.061Z,95977.88
2022-12-06T08:09:10.067Z,95970.97
2022-12-06T08:11:38.333Z,95972.22
2022-12-06T08:14:06.660Z,95961.06
2022-12-06T08:16:36.256Z,95961.88
2022-12-06T08:19:04.948Z,95963.66
2022-12-06T08:21:33.133Z,95960.09
2022-12-06T08:24:01.460Z,95962.78
2022-12-06T08:26:29.672Z,95966.41
2022-12-06T08:28:57.981Z,95971.16
2022-12-06T08:31:26.499Z,95962.53
2022-12-06T08:33:56.533Z,95968.19
2022-12-06T08:36:25.273Z,95966.50
2022-12-06T08:38:53.808Z,95969.59
2022-12-06T08:41:40.099Z,95970.94
2022-12-06T08:44:10.097Z,95971.59
2022-12-06T08:46:38.346Z,95975.25
2022-12-06T08:49:08.027Z,95960.00
2022-12-06T08:51:37.202Z,95970.34
2022-12-06T08:54:06.657Z,95969.59
2022-12-06T08:56:35.142Z,95966.97
2022-12-06T08:59:03.273Z,95967.94
2022-12-06T09:01:37.735Z,95966.53
2022-12-06T09:04:11.078Z,95970.97
2022-12-06T09:06:40.941Z,95976.09
2022-12-06T09:09:10.074Z,95978.31
2022-12-06T09:11:38.513Z,95965.16
2022-12-06T09:14:07.376Z,95971.13
2022-12-06T09:16:36.133Z,95969.63
2022-12-06T09:19:04.483Z,95963.75
2022-12-06T09:21:34.564Z,95952.22
2022-12-06T09:24:02.897Z,95956.56
2022-12-06T09:26:31.135Z,95962.19
2022-12-06T09:28:59.909Z,95967.25
2022-12-06T09:31:28.205Z,95964.63
2022-12-06T09:33:56.467Z,95955.81
2022-12-06T09:36:26.174Z,95965.16
2022-12-06T09:38:58.048Z,95970.44
2022-12-06T09:41:38.417Z,95965.28
2022-12-06T09:44:16.801Z,95968.31
2022-12-06T09:46:56.768Z,95949.78
2022-12-06T09:49:32.776Z,95962.34
2022-12-06T09:52:28.441Z,95920.44
2022-12-06T09:55:09.131Z,95969.22
2022-12-06T09:57:41.668Z,95962.00
2022-12-06T10:00:19.004Z,95953.22
2022-12-06T10:03:11.821Z,95956.88
2022-12-06T10:05:53.095Z,95966.16
2022-12-06T10:08:29.182Z,95949.59
2022-12-06T10:11:06.883Z,95942.53
2022-12-06T10:13:51.262Z,95936.19
2022-12-06T10:16:27.788Z,95933.78
2022-12-06T10:19:04.737Z,95929.78
2022-12-06T10:21:42.249Z,95924.25
2022-12-06T10:24:20.450Z,95924.22
2022-12-06T10:26:51.852Z,95925.09
2022-12-06T10:29:29.357Z,95930.59
2022-12-06T10:31:59.821Z,95927.09
2022-12-06T10:34:45.731Z,95919.72
2022-12-06T10:37:24.583Z,95918.03
2022-12-06T10:39:55.489Z,95911.53
2022-12-06T10:42:34.010Z,95921.06
2022-12-06T10:45:26.869Z,95916.59
2022-12-06T10:47:54.764Z,95899.44
2022-12-06T10:50:26.142Z,95916.69
2022-12-06T10:53:01.864Z,95906.22
2022-12-06T10:55:36.171Z,95913.84
2022-12-06T10:58:18.813Z,95904.22
2022-12-06T11:00:52.462Z,95887.72
2022-12-06T11:03:24.221Z,95919.13
2022-12-06T11:05:55.542Z,95895.34
2022-12-06T11:08:28.198Z,95913.06
2022-12-06T11:10:57.968Z,95892.41
2022-12-06T11:13:32.917Z,95907.63
2022-12-06T11:16:06.243Z,95907.16
2022-12-06T11:18:35.319Z,95915.78
2022-12-06T11:21:06.232Z,95879.03
2022-12-06T11:23:40.960Z,95917.16
2022-12-06T11:26:19.527Z,95912.31
2022-12-06T11:28:55.672Z,95913.44
2022-12-06T11:31:27.435Z,95899.75
2022-12-06T11:33:56.140Z,95904.66
2022-12-06T11:36:25.910Z,95906.16
2022-12-06T11:38:54.504Z,95900.00
2022-12-06T11:41:24.386Z,95901.94
2022-12-06T11:43:54.949Z,95890.91
2022-12-06T11:46:23.812Z,95884.53
2022-12-06T11:48:53.780Z,95894.03
2022-12-06T11:51:24.231Z,95897.13
2022-12-06T11:53:59.417Z,95883.34
2022-12-06T11:56:30.325Z,95891.88
2022-12-06T11:59:05.300Z,95880.06
2022-12-06T12:01:44.313Z,95869.31
2022-12-06T12:04:36.265Z,95879.66
2022-12-06T12:07:14.557Z,95872.84
2022-12-06T12:09:50.209Z,95879.28
2022-12-06T12:12:20.373Z,95877.63
2022-12-06T12:14:56.195Z,95879.50
2022-12-06T12:17:29.344Z,95877.06
2022-12-06T12:20:00.368Z,95876.91
2022-12-06T12:22:31.650Z,95878.88
2022-12-06T12:25:18.767Z,95879.13
2022-12-06T12:27:49.157Z,95882.78
2022-12-06T12:30:29.328Z,95887.53
2022-12-06T12:33:17.203Z,95886.53
2022-12-06T12:35:46.750Z,95873.16
2022-12-06T12:38:18.552Z,95880.63
2022-12-06T12:40:48.466Z,95883.41
2022-12-06T12:43:20.247Z,95836.94
2022-12-06T12:46:19.048Z,95873.03
2022-12-06T12:48:48.916Z,95866.06
2022-12-06T12:51:33.255Z,95870.19
2022-12-06T12:54:03.687Z,95872.94
2022-12-06T12:56:34.446Z,95870.19
2022-12-06T12:59:05.210Z,95831.81
2022-12-06T13:01:40.820Z,95873.47
2022-12-06T13:04:16.916Z,95881.78
2022-12-06T13:06:49.886Z,95872.50
2022-12-06T13:09:23.369Z,95875.38
2022-12-06T13:11:57.282Z,95875.22
2022-12-06T13:14:26.994Z,95875.81
2022-12-06T13:16:57.743Z,95893.88
2022-12-06T13:19:33.183Z,95888.34
2022-12-06T13:22:03.537Z,95884.38
2022-12-06T13:24:32.702Z,95885.25
2022-12-06T13:27:03.039Z,95886.34
2022-12-06T13:29:35.333Z,95887.03
2022-12-06T13:32:10.204Z,95894.72
2022-12-06T13:34:41.360Z,95897.88
2022-12-06T13:37:30.428Z,95895.34
2022-12-06T13:39:59.624Z,95904.88
2022-12-06T13:42:45.563Z,95891.00
2022-12-06T13:45:42.639Z,95895.19
2022-12-06T13:48:39.777Z,95898.44
2022-12-06T13:51:12.596Z,95857.47
2022-12-06T13:54:13.851Z,95904.78
2022-12-06T13:56:43.173Z,95856.72
2022-12-06T13:59:37.022Z,95897.53
2022-12-06T14:02:53.004Z,95897.66
2022-12-06T14:08:36.806Z,95903.94
2022-12-06T14:11:21.132Z,95893.16
2022-12-06T14:13:50.895Z,95893.66
2022-12-06T14:16:23.575Z,95899.38
2022-12-06T14:18:51.930Z,95898.56
2022-12-06T14:21:24.978Z,95904.16
2022-12-06T14:23:53.338Z,95912.09
2022-12-06T14:26:24.630Z,95901.16
2022-12-06T14:28:55.380Z,95897.88
2022-12-06T14:31:29.244Z,95908.97
2022-12-06T14:33:58.540Z,95873.19
2022-12-06T14:36:30.132Z,95911.38
2022-12-06T14:39:01.589Z,95919.84
2022-12-06T14:41:49.432Z,95921.88
2022-12-06T14:44:20.200Z,95926.47
2022-12-06T14:46:49.142Z,95925.63
2022-12-06T14:49:37.783Z,95915.50
2022-12-06T14:52:23.101Z,95915.03
2022-12-06T14:54:52.246Z,95914.94
2022-12-06T14:57:27.992Z,95915.84
2022-12-06T15:03:04.835Z,95923.06
2022-12-06T15:05:35.629Z,95921.63
2022-12-06T15:08:20.503Z,95924.91
2022-12-06T15:10:55.603Z,95919.09
2022-12-06T15:13:24.442Z,95920.13
2022-12-06T15:16:06.968Z,95931.66
2022-12-06T15:18:37.044Z,95928.63
2022-12-06T15:21:10.657Z,95921.03
2022-12-06T15:23:43.396Z,95916.16
2022-12-06T15:26:13.280Z,95909.97
2022-12-06T15:28:41.613Z,95900.75
2022-12-06T15:31:16.216Z,95916.63
2022-12-06T15:33:44.682Z,95921.78
2022-12-06T15:36:17.344Z,95906.47
2022-12-06T15:38:47.020Z,95897.69
2022-12-06T15:41:17.896Z,95913.41
2022-12-06T15:43:46.382Z,95911.75
2022-12-06T15:46:19.767Z,95861.16
2022-12-06T15:48:48.523Z,95913.03
2022-12-06T15:51:20.780Z,95919.75
2022-12-06T15:53:51.317Z,95913.03
2022-12-06T15:56:21.083Z,95912.25
2022-12-06T15:58:49.493Z,95900.00
2022-12-06T16:01:19.834Z,95908.91
2022-12-06T16:03:48.780Z,95913.81
2022-12-06T16:06:19.366Z,95906.94
2022-12-06T16:08:48.156Z,95845.25
2022-12-06T16:11:22.350Z,95895.16
2022-12-06T16:13:50.708Z,95891.28
2022-12-06T16:16:20.452Z,95899.66
2022-12-06T16:18:49.415Z,95886.59
2022-12-06T16:21:22.454Z,95889.94
2022-12-06T16:24:15.268Z,95896.97
2022-12-06T16:26:45.981Z,95885.78
2022-12-06T16:29:16.177Z,95889.13
2022-12-06T16:31:44.529Z,95883.50
2022-12-06T16:34:13.136Z,95886.03
2022-12-06T16:37:00.314Z,95881.69
2022-12-06T16:39:29.609Z,95881.69
2022-12-06T16:41:59.271Z,95889.38
2022-12-06T16:44:27.979Z,95889.22
2022-12-06T16:46:56.279Z,95877.75
2022-12-06T16:52:14.374Z,95864.88
2022-12-06T16:54:42.837Z,95868.72
2022-12-06T16:57:12.909Z,95862.91
2022-12-06T16:59:42.210Z,95847.97
2022-12-06T17:02:24.190Z,95844.47
2022-12-06T17:04:52.400Z,95858.66
2022-12-06T17:07:20.745Z,95847.56
2022-12-06T17:09:48.974Z,95860.81
2022-12-06T17:12:18.554Z,95867.66
2022-12-06T17:14:47.070Z,95863.34
2022-12-06T17:17:16.052Z,95864.31
2022-12-06T17:19:44.441Z,95847.97
2022-12-06T17:22:13.609Z,95855.38
2022-12-06T17:24:42.131Z,95855.66
2022-12-06T17:27:10.625Z,95846.56
2022-12-06T17:29:40.555Z,95856.47
2022-12-06T17:32:09.055Z,95839.72
2022-12-06T17:34:37.620Z,95850.31
2022-12-06T17:37:06.343Z,95858.00
2022-12-06T17:39:34.613Z,95855.47
2022-12-06T17:42:19.963Z,95855.38
2022-12-06T17:44:49.453Z,95837.00
2022-12-06T17:47:18.044Z,95839.97
2022-12-06T17:49:46.379Z,95845.41
2022-12-06T17:52:15.667Z,95861.44
2022-12-06T17:54:43.906Z,95850.91
2022-12-06T17:57:16.273Z,95845.91
2022-12-06T17:59:45.018Z,95839.22
2022-12-06T18:02:17.726Z,95839.22
2022-12-06T18:04:47.454Z,95833.19
2022-12-06T18:07:16.153Z,95823.13
2022-12-06T18:09:44.497Z,95834.88
2022-12-06T18:12:13.830Z,95827.78
2022-12-06T18:14:41.961Z,95829.50
2022-12-06T18:17:10.336Z,95829.41
2022-12-06T18:19:40.972Z,95830.97
2022-12-06T18:22:09.414Z,95830.00
2022-12-06T18:24:37.795Z,95823.97
2022-12-06T18:27:06.448Z,95820.47
2022-12-06T18:29:35.443Z,95823.69
2022-12-06T18:32:03.952Z,95831.38
2022-12-06T18:34:32.759Z,95813.75
2022-12-06T18:37:02.259Z,95780.19
2022-12-06T18:39:30.555Z,95811.63
2022-12-06T18:41:58.779Z,95778.88
2022-12-06T18:44:27.122Z,95801.75
2022-12-06T18:46:55.429Z,95812.44
2022-12-06T18:49:23.595Z,95796.69
2022-12-06T18:51:52.021Z,95785.34
2022-12-06T18:54:22.017Z,95806.50
2022-12-06T18:56:50.789Z,95809.91
2022-12-06T18:59:23.104Z,95806.56
2022-12-06T19:01:54.373Z,95801.50
2022-12-06T19:04:22.779Z,95798.00
2022-12-06T19:06:50.814Z,95799.13
2022-12-06T19:09:19.151Z,95797.16
2022-12-06T19:11:49.430Z,95811.22
2022-12-06T19:14:17.883Z,95803.72
2022-12-06T19:16:47.336Z,95797.09
2022-12-06T19:19:18.602Z,95782.06
2022-12-06T19:21:47.361Z,95790.22
2022-12-06T19:24:16.857Z,95802.72
2022-12-06T19:26:45.553Z,95805.84
2022-12-06T19:29:15.949Z,95810.00
2022-12-06T19:31:44.641Z,95806.81
2022-12-06T19:34:16.633Z,95807.56
2022-12-06T19:36:45.540Z,95812.63
2022-12-06T19:39:14.052Z,95806.81
2022-12-06T19:41:56.260Z,95810.16
2022-12-06T19:44:26.462Z,95817.50
2022-12-06T19:46:54.769Z,95756.47
2022-12-06T19:49:24.810Z,95814.41
2022-12-06T19:51:53.623Z,95819.72
2022-12-06T19:54:24.926Z,95814.56
2022-12-06T19:56:54.554Z,95812.91
2022-12-06T19:59:23.010Z,95819.38
2022-12-06T20:01:54.273Z,95812.44
2022-12-06T20:04:25.101Z,95807.38
2022-12-06T20:06:53.800Z,95799.75
2022-12-06T20:09:23.759Z,95794.88
2022-12-06T20:12:04.670Z,95799.69
2022-12-06T20:14:38.288Z,95797.31
2022-12-06T20:17:09.849Z,95794.06
2022-12-06T20:19:38.310Z,95796.59
2022-12-06T20:22:06.689Z,95794.22
2022-12-06T20:24:34.858Z,95794.88
2022-12-06T20:27:03.190Z,95800.16
2022-12-06T20:29:32.818Z,95800.81
2022-12-06T20:32:01.555Z,95794.63
2022-12-06T20:34:34.214Z,95793.00
2022-12-06T20:37:04.518Z,95793.63
2022-12-06T20:39:35.319Z,95811.19
2022-12-06T20:42:05.659Z,95769.00
2022-12-06T20:44:34.301Z,95809.91
2022-12-06T20:47:02.838Z,95817.00
2022-12-06T20:49:32.553Z,95796.66
2022-12-06T20:52:02.904Z,95816.66
2022-12-06T20:54:31.287Z,95815.13
2022-12-06T20:56:59.657Z,95802.56
2022-12-06T20:59:29.502Z,95810.22
2022-12-06T21:01:58.053Z,95804.09
2022-12-06T21:04:27.573Z,95804.00
2022-12-06T21:06:57.447Z,95804.25
2022-12-06T21:09:25.943Z,95797.72
2022-12-06T21:11:54.116Z,95800.34
2022-12-06T21:14:22.336Z,95812.19
2022-12-06T21:16:50.735Z,95794.97
2022-12-06T21:19:20.650Z,95801.81
2022-12-06T21:21:51.407Z,95809.66
2022-12-06T21:24:22.695Z,95804.66
2022-12-06T21:26:50.970Z,95807.75
2022-12-06T21:29:23.676Z,95802.47
2022-12-06T21:31:56.460Z,95805.88
2022-12-06T21:34:26.839Z,95813.00
2022-12-06T21:36:55.070Z,95814.00
2022-12-06T21:39:24.625Z,95807.13
2022-12-06T21:41:53.305Z,95823.78
2022-12-06T21:44:21.637Z,95828.28
2022-12-06T21:46:52.478Z,95817.34
2022-12-06T21:49:20.766Z,95823.06
2022-12-06T21:51:48.970Z,95814.47
2022-12-06T21:54:17.124Z,95822.16
2022-12-06T21:56:46.659Z,95811.13
2022-12-06T21:59:14.942Z,95824.84
2022-12-06T22:01:43.789Z,95818.91
2022-12-06T22:04:12.394Z,95818.63
2022-12-06T22:06:40.510Z,95807.94
2022-12-06T22:09:08.985Z,95811.50
2022-12-06T22:11:37.353Z,95808.59
2022-12-06T22:14:07.977Z,95800.59
2022-12-06T22:16:36.615Z,95805.81
2022-12-06T22:19:05.355Z,95798.28
2022-12-06T22:21:33.882Z,95796.81
2022-12-06T22:24:02.093Z,95806.22
2022-12-06T22:26:31.965Z,95799.94
2022-12-06T22:29:00.832Z,95810.22
2022-12-06T22:31:31.704Z,95795.38
2022-12-06T22:34:00.055Z,95789.91
2022-12-06T22:36:29.121Z,95805.22
2022-12-06T22:39:01.434Z,95807.06
2022-12-06T22:41:30.775Z,95799.69
2022-12-06T22:44:00.605Z,95816.75
2022-12-06T22:46:30.494Z,95810.94
2022-12-06T22:49:00.107Z,95756.09
2022-12-06T22:51:30.173Z,95804.44
2022-12-06T22:53:59.309Z,95811.94
2022-12-06T22:56:27.855Z,95800.16
2022-12-06T22:58:56.316Z,95798.97
2022-12-06T23:01:26.004Z,95794.53
2022-12-06T23:03:56.049Z,95804.66
2022-12-06T23:06:25.437Z,95809.66
2022-12-06T23:08:54.080Z,95796.44
2022-12-06T23:11:23.819Z,95800.16
2022-12-06T23:13:52.039Z,95810.94
2022-12-06T23:16:21.579Z,95808.69
2022-12-06T23:18:50.163Z,95808.13
2022-12-06T23:21:21.113Z,95780.09
2022-12-06T23:23:50.619Z,95799.59
2022-12-06T23:26:20.665Z,95802.63
2022-12-06T23:28:49.083Z,95816.94
2022-12-06T23:31:18.763Z,95815.28
2022-12-06T23:33:47.454Z,95812.13
2022-12-06T23:36:21.577Z,95812.75
2022-12-06T23:38:51.052Z,95808.34
2022-12-06T23:41:21.439Z,95811.94
2022-12-06T23:43:49.643Z,95807.28
2022-12-06T23:46:22.472Z,95809.50
2022-12-06T23:48:50.902Z,95810.31
2022-12-06T23:51:20.881Z,95806.22
2022-12-06T23:53:52.918Z,95812.25
2022-12-06T23:56:22.898Z,95804.59
2022-12-06T23:58:51.980Z,95811.28
